createdAt,value
2023-05-19T00:00:48.546Z,101727.64
2023-05-19T00:03:22.001Z,101728.90
2023-05-19T00:05:53.796Z,101729.48
2023-05-19T00:08:24.742Z,101726.87
2023-05-19T00:10:52.991Z,101724.48
2023-05-19T00:13:21.833Z,101723.50
2023-05-19T00:15:51.089Z,101726.00
2023-05-19T00:18:19.045Z,101724.43
2023-05-19T00:20:48.586Z,101723.43
2023-05-19T00:23:16.477Z,101721.41
2023-05-19T00:25:44.588Z,101719.13
2023-05-19T00:28:12.609Z,101719.88
2023-05-19T00:30:40.613Z,101718.70
2023-05-19T00:33:08.517Z,101717.36
2023-05-19T00:35:36.660Z,101712.82
2023-05-19T00:38:04.691Z,101722.23
2023-05-19T00:40:35.428Z,101718.05
2023-05-19T00:43:05.539Z,101719.47
2023-05-19T00:45:33.611Z,101711.77
2023-05-19T00:48:01.561Z,101710.88
2023-05-19T00:50:29.696Z,101714.63
2023-05-19T00:52:58.163Z,101711.79
2023-05-19T00:55:31.916Z,101709.54
2023-05-19T00:58:00.790Z,101707.11
2023-05-19T01:00:30.676Z,101711.96
2023-05-19T01:02:59.377Z,101710.94
2023-05-19T01:05:27.442Z,101710.62
2023-05-19T01:07:56.587Z,101713.14
2023-05-19T01:10:24.614Z,101708.20
2023-05-19T01:12:52.758Z,101710.04
2023-05-19T01:15:20.904Z,101706.61
2023-05-19T01:17:56.156Z,101707.04
2023-05-19T01:21:07.139Z,101706.55
2023-05-19T01:23:52.078Z,101703.42
2023-05-19T01:27:01.774Z,101701.38
2023-05-19T01:30:03.138Z,101701.52
2023-05-19T01:32:33.719Z,101697.73
2023-05-19T01:35:05.685Z,101693.39
2023-05-19T01:37:34.538Z,101695.00
2023-05-19T01:40:02.621Z,101697.66
2023-05-19T01:42:37.485Z,101654.83
2023-05-19T01:45:10.400Z,101693.36
2023-05-19T01:47:41.330Z,101691.83
2023-05-19T01:50:10.047Z,101686.39
2023-05-19T01:52:38.201Z,101688.01
2023-05-19T01:55:07.019Z,101686.61
2023-05-19T01:57:51.306Z,101684.34
2023-05-19T02:00:34.713Z,101682.58
2023-05-19T02:03:22.770Z,101683.63
2023-05-19T02:06:08.753Z,101679.45
2023-05-19T02:08:47.691Z,101671.76
2023-05-19T02:11:26.305Z,101682.84
2023-05-19T02:13:57.009Z,101685.52
2023-05-19T02:16:29.255Z,101686.86
2023-05-19T02:18:59.671Z,101684.89
2023-05-19T02:21:27.827Z,101684.73
2023-05-19T02:23:56.282Z,101686.51
2023-05-19T02:26:24.648Z,101670.55
2023-05-19T02:28:55.357Z,101674.95
2023-05-19T02:31:23.475Z,101685.06
2023-05-19T02:33:51.629Z,101678.35
2023-05-19T02:36:19.499Z,101678.70
2023-05-19T02:38:47.400Z,101681.52
2023-05-19T02:41:16.358Z,101679.75
2023-05-19T02:43:44.875Z,101681.73
2023-05-19T02:46:12.863Z,101681.58
2023-05-19T02:48:41.185Z,101682.35
2023-05-19T02:51:09.836Z,101683.86
2023-05-19T02:53:37.782Z,101681.88
2023-05-19T02:56:06.188Z,101685.23
2023-05-19T02:58:34.308Z,101680.45
2023-05-19T03:01:02.760Z,101679.92
2023-05-19T03:03:31.248Z,101679.42
2023-05-19T03:05:59.393Z,101682.77
2023-05-19T03:08:27.826Z,101684.30
2023-05-19T03:10:56.364Z,101691.71
2023-05-19T03:13:24.225Z,101691.23
2023-05-19T03:15:52.737Z,101684.70
2023-05-19T03:18:21.479Z,101688.58
2023-05-19T03:20:49.503Z,101686.91
2023-05-19T03:23:17.361Z,101686.01
2023-05-19T03:25:45.591Z,101689.67
2023-05-19T03:28:14.131Z,101686.65
2023-05-19T03:30:42.153Z,101690.17
2023-05-19T03:33:13.714Z,101689.15
2023-05-19T03:35:42.325Z,101695.01
2023-05-19T03:38:10.327Z,101697.53
2023-05-19T03:40:38.524Z,101695.23
2023-05-19T03:43:09.618Z,101693.36
2023-05-19T03:45:43.183Z,101691.10
2023-05-19T03:48:30.277Z,101691.32
2023-05-19T03:51:17.044Z,101688.16
2023-05-19T03:53:45.785Z,101689.25
2023-05-19T03:56:14.091Z,101691.45
2023-05-19T03:58:44.513Z,101690.38
2023-05-19T04:01:12.613Z,101688.59
2023-05-19T04:03:40.820Z,101688.05
2023-05-19T04:06:09.432Z,101689.45
2023-05-19T04:08:37.353Z,101691.02
2023-05-19T04:11:05.439Z,101690.39
2023-05-19T04:13:35.057Z,101689.25
2023-05-19T04:16:03.232Z,101688.36
2023-05-19T04:18:31.597Z,101686.91
2023-05-19T04:20:59.891Z,101692.19
2023-05-19T04:23:27.915Z,101692.51
2023-05-19T04:25:58.249Z,101693.40
2023-05-19T04:28:26.520Z,101698.84
2023-05-19T04:30:55.324Z,101693.55
2023-05-19T04:33:23.269Z,101697.23
2023-05-19T04:35:51.797Z,101692.08
2023-05-19T04:38:22.221Z,101691.70
2023-05-19T04:40:52.115Z,101692.39
2023-05-19T04:43:22.384Z,101697.52
2023-05-19T04:45:51.535Z,101695.59
2023-05-19T04:48:23.989Z,101698.02
2023-05-19T04:50:52.097Z,101697.49
2023-05-19T04:53:22.084Z,101694.10
2023-05-19T04:55:50.424Z,101694.46
2023-05-19T04:58:18.439Z,101693.91
2023-05-19T05:00:46.718Z,101694.95
2023-05-19T05:03:15.358Z,101675.98
2023-05-19T05:05:43.396Z,101694.12
2023-05-19T05:08:11.669Z,101697.26
2023-05-19T05:10:42.275Z,101701.44
2023-05-19T05:13:11.842Z,101698.04
2023-05-19T05:15:40.409Z,101695.11
2023-05-19T05:18:09.713Z,101695.47
2023-05-19T05:20:38.206Z,101696.77
2023-05-19T05:23:06.851Z,101693.35
2023-05-19T05:25:36.439Z,101692.21
2023-05-19T05:28:05.410Z,101695.86
2023-05-19T05:30:34.573Z,101695.73
2023-05-19T05:33:03.178Z,101691.63
2023-05-19T05:35:34.577Z,101692.23
2023-05-19T05:38:03.227Z,101691.46
2023-05-19T05:40:31.649Z,101690.37
2023-05-19T05:42:59.622Z,101686.95
2023-05-19T05:45:29.552Z,101687.88
2023-05-19T05:47:58.723Z,101691.59
2023-05-19T05:50:27.048Z,101685.38
2023-05-19T05:52:56.080Z,101683.92
2023-05-19T05:55:24.995Z,101685.57
2023-05-19T05:57:53.053Z,101689.88
2023-05-19T06:00:22.449Z,101685.54
2023-05-19T06:02:52.884Z,101684.69
2023-05-19T06:05:21.294Z,101683.58
2023-05-19T06:07:49.674Z,101684.20
2023-05-19T06:10:24.081Z,101684.89
2023-05-19T06:12:52.436Z,101686.73
2023-05-19T06:15:22.500Z,101686.55
2023-05-19T06:17:54.844Z,101687.02
2023-05-19T06:20:22.917Z,101688.56
2023-05-19T06:22:51.568Z,101684.06
2023-05-19T06:25:21.040Z,101683.41
2023-05-19T06:27:49.117Z,101688.95
2023-05-19T06:30:17.326Z,101694.77
2023-05-19T06:33:01.648Z,101691.98
2023-05-19T06:35:30.766Z,101691.98
2023-05-19T06:37:58.924Z,101692.81
2023-05-19T06:40:27.078Z,101688.64
2023-05-19T06:42:55.174Z,101690.83
2023-05-19T06:45:33.463Z,101691.66
2023-05-19T06:48:03.403Z,101692.98
2023-05-19T06:50:32.354Z,101695.56
2023-05-19T06:53:00.974Z,101697.10
2023-05-19T06:55:29.020Z,101694.12
2023-05-19T06:57:57.154Z,101692.86
2023-05-19T07:00:26.594Z,101690.23
2023-05-19T07:02:54.844Z,101691.32
2023-05-19T07:05:23.017Z,101693.84
2023-05-19T07:07:54.460Z,101692.21
2023-05-19T07:10:25.104Z,101692.08
2023-05-19T07:12:53.458Z,101692.34
2023-05-19T07:15:23.131Z,101688.29
2023-05-19T07:17:51.364Z,101688.46
2023-05-19T07:20:19.400Z,101688.90
2023-05-19T07:22:48.210Z,101686.31
2023-05-19T07:25:17.168Z,101687.36
2023-05-19T07:27:47.126Z,101672.02
2023-05-19T07:30:15.479Z,101689.61
2023-05-19T07:32:43.448Z,101688.58
2023-05-19T07:35:11.707Z,101687.15
2023-05-19T07:37:39.971Z,101688.52
2023-05-19T07:40:08.878Z,101688.89
2023-05-19T07:42:36.773Z,101694.90
2023-05-19T07:45:05.987Z,101694.61
2023-05-19T07:47:33.912Z,101695.90
2023-05-19T07:50:01.849Z,101695.48
2023-05-19T07:52:30.004Z,101692.55
2023-05-19T07:54:59.530Z,101692.89
2023-05-19T07:57:27.660Z,101692.02
2023-05-19T07:59:55.957Z,101693.64
2023-05-19T08:02:23.973Z,101694.88
2023-05-19T08:04:53.246Z,101697.51
2023-05-19T08:07:21.604Z,101696.91
2023-05-19T08:09:49.492Z,101682.65
2023-05-19T08:12:17.383Z,101693.44
2023-05-19T08:14:46.052Z,101690.17
2023-05-19T08:17:13.985Z,101689.84
2023-05-19T08:19:41.950Z,101690.02
2023-05-19T08:22:10.172Z,101685.16
2023-05-19T08:24:39.288Z,101690.02
2023-05-19T08:27:07.333Z,101689.17
2023-05-19T08:29:36.648Z,101678.83
2023-05-19T08:32:05.490Z,101689.04
2023-05-19T08:34:33.488Z,101689.48
2023-05-19T08:37:01.637Z,101688.33
2023-05-19T08:39:29.940Z,101684.72
2023-05-19T08:41:57.938Z,101688.05
2023-05-19T08:44:26.630Z,101690.17
2023-05-19T08:47:00.260Z,101689.62
2023-05-19T08:49:32.661Z,101691.50
2023-05-19T08:52:09.824Z,101699.19
2023-05-19T08:54:45.974Z,101695.14
2023-05-19T08:57:14.509Z,101698.06
2023-05-19T08:59:43.383Z,101701.34
2023-05-19T09:02:13.446Z,101701.40
2023-05-19T09:04:45.962Z,101702.15
2023-05-19T09:07:18.996Z,101706.22
2023-05-19T09:09:47.766Z,101704.19
2023-05-19T09:12:16.302Z,101702.66
2023-05-19T09:14:44.388Z,101704.05
2023-05-19T09:17:12.534Z,101702.94
2023-05-19T09:19:44.871Z,101700.23
2023-05-19T09:22:15.866Z,101652.92
2023-05-19T09:24:44.067Z,101698.55
2023-05-19T09:27:16.198Z,101697.09
2023-05-19T09:29:44.095Z,101694.89
2023-05-19T09:32:12.337Z,101695.64
2023-05-19T09:34:42.252Z,101693.44
2023-05-19T09:37:13.497Z,101694.02
2023-05-19T09:39:41.689Z,101692.36
2023-05-19T09:42:09.548Z,101691.30
2023-05-19T09:44:37.689Z,101690.48
2023-05-19T11:09:31.131Z,101660.44
2023-05-19T11:12:07.037Z,101664.20
2023-05-19T11:14:34.991Z,101665.13
2023-05-19T11:17:03.159Z,101659.15
2023-05-19T11:19:34.510Z,101659.08
2023-05-19T11:22:09.566Z,101660.25
2023-05-19T11:24:50.733Z,101659.31
2023-05-19T11:27:38.557Z,101659.45
2023-05-19T11:30:07.654Z,101658.56
2023-05-19T11:32:39.380Z,101661.91
2023-05-19T11:35:08.316Z,101660.19
2023-05-19T11:37:37.113Z,101663.45
2023-05-19T11:40:07.557Z,101662.23
2023-05-19T11:42:37.818Z,101661.42
2023-05-19T11:45:08.887Z,101662.50
2023-05-19T11:47:50.869Z,101665.59
2023-05-19T11:50:25.693Z,101664.79
2023-05-19T11:52:56.720Z,101666.45
2023-05-19T11:55:24.995Z,101670.33
2023-05-19T11:58:03.787Z,101670.25
2023-05-19T12:00:41.545Z,101667.90
2023-05-19T12:03:10.463Z,101667.48
2023-05-19T12:05:46.069Z,101667.80
2023-05-19T12:08:17.700Z,101665.69
2023-05-19T12:10:50.761Z,101666.14
2023-05-19T12:13:19.393Z,101666.02
2023-05-19T12:15:47.559Z,101671.49
2023-05-19T12:18:15.629Z,101670.23
2023-05-19T12:20:43.943Z,101668.04
2023-05-19T12:23:12.476Z,101668.87
2023-05-19T12:25:40.758Z,101669.83
2023-05-19T12:28:08.753Z,101667.65
2023-05-19T12:30:37.405Z,101662.04
2023-05-19T12:33:05.919Z,101658.35
2023-05-19T12:35:37.605Z,101657.95
2023-05-19T12:38:07.134Z,101654.05
2023-05-19T12:40:36.529Z,101658.71
2023-05-19T12:43:05.596Z,101655.73
2023-05-19T12:45:35.121Z,101656.39
2023-05-19T12:48:05.620Z,101655.47
2023-05-19T12:50:34.725Z,101640.80
2023-05-19T12:53:03.314Z,101658.98
2023-05-19T12:55:31.318Z,101656.27
2023-05-19T12:57:59.415Z,101657.71
2023-05-19T13:00:32.742Z,101656.17
2023-05-19T13:03:05.548Z,101661.11
2023-05-19T13:05:46.660Z,101657.30
2023-05-19T13:08:24.807Z,101661.59
2023-05-19T13:10:53.016Z,101656.48
2023-05-19T13:13:22.080Z,101657.02
2023-05-19T13:15:50.167Z,101653.73
2023-05-19T13:18:18.571Z,101655.12
2023-05-19T13:20:47.436Z,101650.52
2023-05-19T13:23:16.362Z,101652.84
2023-05-19T13:25:44.528Z,101650.02
2023-05-19T13:28:12.902Z,101650.98
2023-05-19T13:30:42.012Z,101652.02
2023-05-19T13:33:10.280Z,101655.02
2023-05-19T13:35:39.197Z,101636.95
2023-05-19T13:38:10.194Z,101650.34
2023-05-19T13:40:40.690Z,101649.60
2023-05-19T13:43:09.198Z,101651.97
2023-05-19T13:45:37.494Z,101653.28
2023-05-19T13:48:07.468Z,101650.66
2023-05-19T13:50:35.811Z,101651.68
2023-05-19T13:53:04.031Z,101652.39
2023-05-19T13:55:33.346Z,101651.98
2023-05-19T13:58:01.374Z,101633.73
2023-05-19T14:00:30.984Z,101652.50
2023-05-19T14:03:00.567Z,101651.38
2023-05-19T14:05:29.176Z,101651.15
2023-05-19T14:07:58.089Z,101651.94
2023-05-19T14:10:26.933Z,101650.45
2023-05-19T14:13:26.032Z,101647.81
2023-05-19T14:15:44.590Z,101648.02
2023-05-19T14:18:12.654Z,101632.63
2023-05-19T14:20:40.717Z,101652.04
2023-05-19T14:23:09.107Z,101649.55
2023-05-19T14:25:37.285Z,101651.36
2023-05-19T14:28:05.483Z,101654.87
2023-05-19T14:30:34.149Z,101652.00
2023-05-19T14:33:02.497Z,101653.70
2023-05-19T14:35:30.756Z,101653.97
2023-05-19T14:37:58.795Z,101655.17
2023-05-19T14:40:26.871Z,101654.10
2023-05-19T14:42:54.902Z,101652.10
2023-05-19T14:45:23.054Z,101653.58
2023-05-19T14:47:51.148Z,101652.73
2023-05-19T14:50:19.131Z,101650.81
2023-05-19T14:52:47.181Z,101649.17
2023-05-19T14:55:15.239Z,101651.48
2023-05-19T14:57:43.223Z,101648.03
2023-05-19T15:00:12.228Z,101649.70
2023-05-19T15:02:40.313Z,101652.92
2023-05-19T15:05:08.958Z,101651.90
2023-05-19T15:07:37.327Z,101655.31
2023-05-19T15:10:06.006Z,101657.89
2023-05-19T15:12:33.902Z,101661.14
2023-05-19T15:15:02.320Z,101664.29
2023-05-19T15:17:31.370Z,101664.88
2023-05-19T15:19:59.310Z,101652.49
2023-05-19T15:22:27.320Z,101667.10
2023-05-19T15:24:55.502Z,101665.34
2023-05-19T15:27:23.942Z,101664.58
2023-05-19T15:29:52.019Z,101665.65
2023-05-19T15:32:20.413Z,101663.06
2023-05-19T15:34:48.482Z,101662.54
2023-05-19T15:37:16.667Z,101659.55
2023-05-19T15:39:44.690Z,101657.95
2023-05-19T15:42:12.638Z,101659.75
2023-05-19T15:44:40.824Z,101658.32
2023-05-19T15:47:08.929Z,101641.44
2023-05-19T15:49:36.813Z,101658.02
2023-05-19T15:52:05.136Z,101655.09
2023-05-19T15:54:33.135Z,101655.34
2023-05-19T15:57:01.137Z,101652.05
2023-05-19T15:59:29.108Z,101648.97
2023-05-19T16:01:57.694Z,101644.19
2023-05-19T16:04:25.675Z,101642.33
2023-05-19T16:06:53.704Z,101640.57
2023-05-19T16:09:21.814Z,101638.28
2023-05-19T16:11:49.760Z,101638.35
2023-05-19T16:14:17.859Z,101640.17
2023-05-19T16:16:46.100Z,101638.11
2023-05-19T16:19:14.170Z,101638.52
2023-05-19T16:21:42.667Z,101637.73
2023-05-19T16:24:10.620Z,101638.98
2023-05-19T16:26:38.546Z,101637.58
2023-05-19T16:29:06.554Z,101636.84
2023-05-19T16:31:34.800Z,101638.23
2023-05-19T16:34:02.785Z,101636.69
2023-05-19T16:36:31.894Z,101639.15
2023-05-19T16:38:59.928Z,101641.95
2023-05-19T16:41:27.865Z,101641.66
2023-05-19T16:43:56.075Z,101642.05
2023-05-19T16:46:24.298Z,101642.69
2023-05-19T16:48:52.639Z,101641.60
2023-05-19T16:51:20.838Z,101637.27
2023-05-19T16:53:48.931Z,101637.41
2023-05-19T16:56:16.838Z,101638.78
2023-05-19T16:58:44.915Z,101639.86
2023-05-19T17:01:12.908Z,101644.66
2023-05-19T17:03:41.052Z,101640.95
2023-05-19T17:06:09.114Z,101640.05
2023-05-19T17:08:37.209Z,101639.50
2023-05-19T17:11:06.560Z,101641.29
2023-05-19T17:13:36.529Z,101638.95
2023-05-19T17:16:04.693Z,101638.08
2023-05-19T17:18:32.895Z,101639.98
2023-05-19T17:21:03.959Z,101642.70
2023-05-19T17:23:32.652Z,101640.41
2023-05-19T17:26:00.816Z,101642.21
2023-05-19T17:28:28.995Z,101642.07
2023-05-19T17:30:57.222Z,101639.27
2023-05-19T17:33:26.651Z,101638.35
2023-05-19T17:35:54.847Z,101640.86
2023-05-19T17:38:22.787Z,101640.77
2023-05-19T17:40:50.840Z,101638.84
2023-05-19T17:43:18.883Z,101636.92
2023-05-19T17:45:47.287Z,101636.41
2023-05-19T17:48:15.371Z,101640.05
2023-05-19T17:50:46.418Z,101643.79
2023-05-19T17:53:17.466Z,101639.72
2023-05-19T17:55:51.496Z,101645.91
2023-05-19T17:58:19.953Z,101644.33
2023-05-19T18:00:48.402Z,101647.63
2023-05-19T18:03:16.809Z,101649.41
2023-05-19T18:05:45.924Z,101652.29
2023-05-19T18:08:14.976Z,101650.70
2023-05-19T18:10:43.983Z,101647.55
2023-05-19T18:13:14.489Z,101642.27
2023-05-19T18:15:42.783Z,101643.73
2023-05-19T18:18:11.858Z,101649.81
2023-05-19T18:20:41.425Z,101646.44
2023-05-19T18:23:09.594Z,101642.08
2023-05-19T18:25:38.146Z,101642.99
2023-05-19T18:28:06.310Z,101644.84
2023-05-19T18:30:34.591Z,101647.59
2023-05-19T18:33:03.985Z,101649.92
2023-05-19T18:35:32.469Z,101655.80
2023-05-19T18:38:00.840Z,101657.64
2023-05-19T18:40:28.755Z,101663.38
2023-05-19T18:42:57.054Z,101629.01
2023-05-19T18:45:25.286Z,101663.74
2023-05-19T18:47:53.453Z,101662.75
2023-05-19T18:50:21.751Z,101664.10
2023-05-19T18:52:49.715Z,101664.99
2023-05-19T18:55:17.777Z,101667.52
2023-05-19T18:57:46.322Z,101669.73
2023-05-19T19:00:14.903Z,101671.21
2023-05-19T19:02:42.900Z,101674.81
2023-05-19T19:05:11.278Z,101675.75
2023-05-19T19:07:44.367Z,101676.34
2023-05-19T19:10:12.638Z,101679.08
2023-05-19T19:12:40.828Z,101681.22
2023-05-19T19:15:09.610Z,101681.30
2023-05-19T19:17:38.395Z,101681.76
2023-05-19T19:20:08.235Z,101683.06
2023-05-19T19:22:36.355Z,101683.29
2023-05-19T19:25:04.788Z,101685.09
2023-05-19T19:27:35.648Z,101688.55
2023-05-19T19:30:04.497Z,101686.09
2023-05-19T19:32:33.035Z,101684.19
2023-05-19T19:35:01.218Z,101686.73
2023-05-19T19:37:29.229Z,101691.05
2023-05-19T19:39:57.357Z,101688.97
2023-05-19T19:42:25.506Z,101686.75
2023-05-19T19:44:56.681Z,101692.17
2023-05-19T19:47:24.877Z,101690.64
2023-05-19T19:49:53.109Z,101690.67
2023-05-19T19:52:21.086Z,101690.05
2023-05-19T19:54:49.361Z,101691.94
2023-05-19T19:57:17.451Z,101694.45
2023-05-19T19:59:45.379Z,101692.05
2023-05-19T20:02:14.244Z,101693.13
2023-05-19T20:04:42.449Z,101692.79
2023-05-19T20:07:10.490Z,101695.18
2023-05-19T20:09:38.703Z,101690.13
2023-05-19T20:12:09.162Z,101690.48
2023-05-19T20:14:37.172Z,101692.13
2023-05-19T20:17:07.072Z,101688.55
2023-05-19T20:19:35.604Z,101686.10
2023-05-19T20:22:03.903Z,101686.67
2023-05-19T20:24:32.323Z,101690.73
2023-05-19T20:27:00.495Z,101694.66
2023-05-19T20:29:28.510Z,101690.41
2023-05-19T20:31:57.404Z,101693.73
2023-05-19T20:34:26.042Z,101696.59
2023-05-19T20:36:54.180Z,101700.14
2023-05-19T20:39:22.577Z,101702.83
2023-05-19T20:41:50.802Z,101705.67
2023-05-19T20:44:18.760Z,101702.71
2023-05-19T20:46:47.031Z,101702.20
2023-05-19T20:49:15.139Z,101698.19
2023-05-19T20:51:43.117Z,101697.14
2023-05-19T20:54:11.332Z,101700.83
2023-05-19T20:56:39.558Z,101702.48
2023-05-19T20:59:07.523Z,101703.02
2023-05-19T21:01:35.995Z,101704.67
2023-05-19T21:04:06.919Z,101702.55
2023-05-19T21:06:35.210Z,101705.94
2023-05-19T21:09:06.977Z,101707.00
2023-05-19T21:11:35.160Z,101707.70
2023-05-19T21:14:06.024Z,101705.23
2023-05-19T21:16:34.715Z,101704.53
2023-05-19T21:19:02.905Z,101707.55
2023-05-19T21:21:31.837Z,101703.52
2023-05-19T21:24:00.500Z,101705.58
2023-05-19T21:26:28.906Z,101701.41
2023-05-19T21:28:56.912Z,101700.54
2023-05-19T21:31:25.207Z,101700.90
2023-05-19T21:33:53.410Z,101703.31
2023-05-19T21:36:21.481Z,101703.35
2023-05-19T21:38:49.612Z,101702.48
2023-05-19T21:41:17.602Z,101702.38
2023-05-19T21:43:46.584Z,101705.60
2023-05-19T21:46:15.381Z,101705.08
2023-05-19T21:48:43.478Z,101706.74
2023-05-19T21:51:11.615Z,101705.02
2023-05-19T21:53:39.703Z,101706.44
2023-05-19T21:56:07.885Z,101702.05
2023-05-19T21:58:36.084Z,101700.30
2023-05-19T22:01:04.781Z,101701.75
2023-05-19T22:03:33.447Z,101702.70
2023-05-19T22:06:01.812Z,101699.90
2023-05-19T22:08:30.036Z,101698.14
2023-05-19T22:10:58.245Z,101692.65
2023-05-19T22:13:26.432Z,101690.02
2023-05-19T22:15:54.749Z,101694.48
2023-05-19T22:18:23.459Z,101699.11
2023-05-19T22:20:51.338Z,101700.38
2023-05-19T22:23:19.586Z,101697.92
2023-05-19T22:25:47.754Z,101693.98
2023-05-19T22:28:15.773Z,101692.52
2023-05-19T22:30:44.413Z,101698.84
2023-05-19T22:33:13.175Z,101700.20
2023-05-19T22:35:41.985Z,101701.61
2023-05-19T22:38:10.722Z,101698.90
2023-05-19T22:40:39.736Z,101698.38
2023-05-19T22:43:07.741Z,101699.61
2023-05-19T22:45:38.893Z,101696.61
2023-05-19T22:48:07.179Z,101695.39
2023-05-19T22:50:35.166Z,101682.31
2023-05-19T22:53:03.193Z,101699.69
2023-05-19T22:55:31.686Z,101698.10
2023-05-19T22:57:59.923Z,101698.80
2023-05-19T23:00:28.076Z,101697.38
2023-05-19T23:02:58.402Z,101697.80
2023-05-19T23:05:26.532Z,101693.98
2023-05-19T23:07:54.586Z,101695.77
2023-05-19T23:10:22.599Z,101691.69
2023-05-19T23:12:51.558Z,101693.39
2023-05-19T23:15:19.581Z,101691.63
2023-05-19T23:17:47.598Z,101695.67
2023-05-19T23:20:15.805Z,101694.91
2023-05-19T23:22:43.832Z,101695.61
2023-05-19T23:25:11.781Z,101692.22
2023-05-19T23:27:39.859Z,101688.84
2023-05-19T23:30:08.535Z,101688.61
2023-05-19T23:32:36.658Z,101693.39
2023-05-19T23:35:16.190Z,101693.58
2023-05-19T23:37:44.312Z,101693.58
2023-05-19T23:40:12.708Z,101690.48
2023-05-19T23:42:40.925Z,101692.97
2023-05-19T23:45:09.297Z,101692.44
2023-05-19T23:47:37.542Z,101690.75
2023-05-19T23:50:05.957Z,101687.19
2023-05-19T23:52:34.000Z,101686.36
2023-05-19T23:55:03.670Z,101673.01
2023-05-19T23:57:31.663Z,101684.05
